sensor_id;sensor_type;location;lat;lon;timestamp;pressure;altitude;pressure_sealevel;temperature;humidity
70559;BME280;58108;48.094;11.838;2022-08-11T00:02:35;95800.78;;;12.53;75.01
70559;BME280;58108;48.094;11.838;2022-08-11T00:05:20;95800.91;;;12.51;75.40
70559;BME280;58108;48.094;11.838;2022-08-11T00:07:52;95800.13;;;12.61;75.00
70559;BME280;58108;48.094;11.838;2022-08-11T00:10:21;95809.63;;;12.52;75.05
70559;BME280;58108;48.094;11.838;2022-08-11T00:12:52;95801.00;;;12.82;74.85
70559;BME280;58108;48.094;11.838;2022-08-11T00:15:18;95799.44;;;12.58;74.50
70559;BME280;58108;48.094;11.838;2022-08-11T00:17:45;95796.00;;;12.58;74.53
70559;BME280;58108;48.094;11.838;2022-08-11T00:20:13;95798.75;;;12.56;75.68
70559;BME280;58108;48.094;11.838;2022-08-11T00:22:40;95810.59;;;12.51;75.58
70559;BME280;58108;48.094;11.838;2022-08-11T00:25:16;95802.72;;;12.39;76.67
70559;BME280;58108;48.094;11.838;2022-08-11T00:27:42;95802.19;;;12.24;77.48
70559;BME280;58108;48.094;11.838;2022-08-11T00:30:09;95806.59;;;12.12;78.26
70559;BME280;58108;48.094;11.838;2022-08-11T00:32:41;95807.34;;;12.14;77.90
70559;BME280;58108;48.094;11.838;2022-08-11T00:35:10;95807.44;;;12.24;76.56
70559;BME280;58108;48.094;11.838;2022-08-11T00:37:37;95805.50;;;12.26;76.67
70559;BME280;58108;48.094;11.838;2022-08-11T00:40:05;95814.91;;;12.40;76.51
70559;BME280;58108;48.094;11.838;2022-08-11T00:42:54;95814.13;;;12.17;77.35
70559;BME280;58108;48.094;11.838;2022-08-11T00:45:29;95816.88;;;11.93;78.10
70559;BME280;58108;48.094;11.838;2022-08-11T00:51:11;95818.69;;;12.03;78.48
70559;BME280;58108;48.094;11.838;2022-08-11T00:53:48;95806.59;;;12.24;77.50
70559;BME280;58108;48.094;11.838;2022-08-11T01:01:57;95813.66;;;11.89;78.89
70559;BME280;58108;48.094;11.838;2022-08-11T01:10:51;95803.50;;;11.96;78.79
70559;BME280;58108;48.094;11.838;2022-08-11T01:47:07;95798.16;;;11.29;83.54
70559;BME280;58108;48.094;11.838;2022-08-11T01:56:28;95798.41;;;11.60;80.90
70559;BME280;58108;48.094;11.838;2022-08-11T02:07:17;95792.47;;;10.99;83.99
70559;BME280;58108;48.094;11.838;2022-08-11T02:10:13;95788.69;;;11.03;84.11
70559;BME280;58108;48.094;11.838;2022-08-11T02:13:31;95789.03;;;11.10;83.76
70559;BME280;58108;48.094;11.838;2022-08-11T02:16:32;95793.94;;;11.15;83.93
70559;BME280;58108;48.094;11.838;2022-08-11T02:19:37;95783.22;;;11.18;83.86
70559;BME280;58108;48.094;11.838;2022-08-11T02:25:37;95790.94;;;10.97;84.49
70559;BME280;58108;48.094;11.838;2022-08-11T02:33:47;95775.91;;;10.87;85.21
70559;BME280;58108;48.094;11.838;2022-08-11T02:36:20;95778.75;;;10.84;85.19
70559;BME280;58108;48.094;11.838;2022-08-11T02:38:54;95778.75;;;10.84;85.00
70559;BME280;58108;48.094;11.838;2022-08-11T02:41:31;95775.78;;;10.89;84.25
70559;BME280;58108;48.094;11.838;2022-08-11T02:55:33;95774.66;;;10.69;85.61
70559;BME280;58108;48.094;11.838;2022-08-11T02:58:26;95782.38;;;10.70;85.94
70559;BME280;58108;48.094;11.838;2022-08-11T03:01:17;95781.91;;;10.65;86.01
70559;BME280;58108;48.094;11.838;2022-08-11T03:03:56;95780.72;;;10.69;85.98
70559;BME280;58108;48.094;11.838;2022-08-11T03:06:34;95780.66;;;10.82;84.17
70559;BME280;58108;48.094;11.838;2022-08-11T03:09:24;95780.50;;;10.72;85.64
70559;BME280;58108;48.094;11.838;2022-08-11T03:12:00;95781.22;;;10.74;85.21
70559;BME280;58108;48.094;11.838;2022-08-11T03:17:41;95783.22;;;10.71;85.78
70559;BME280;58108;48.094;11.838;2022-08-11T03:25:48;95777.72;;;10.62;86.21
70559;BME280;58108;48.094;11.838;2022-08-11T03:28:29;95781.16;;;10.51;86.13
70559;BME280;58108;48.094;11.838;2022-08-11T03:33:47;95784.03;;;10.60;85.71
70559;BME280;58108;48.094;11.838;2022-08-11T03:37:04;95777.81;;;10.49;85.83
70559;BME280;58108;48.094;11.838;2022-08-11T03:39:56;95786.25;;;10.29;86.92
70559;BME280;58108;48.094;11.838;2022-08-11T03:42:49;95791.25;;;10.32;87.69
70559;BME280;58108;48.094;11.838;2022-08-11T03:45:20;95783.38;;;10.32;87.09
70559;BME280;58108;48.094;11.838;2022-08-11T03:50:51;95785.06;;;10.33;87.82
70559;BME280;58108;48.094;11.838;2022-08-11T03:59:58;95779.06;;;10.19;88.12
70559;BME280;58108;48.094;11.838;2022-08-11T04:03:10;95788.41;;;10.35;87.87
70559;BME280;58108;48.094;11.838;2022-08-11T04:06:12;95783.72;;;10.27;87.67
70559;BME280;58108;48.094;11.838;2022-08-11T04:09:19;95784.31;;;10.19;87.91
70559;BME280;58108;48.094;11.838;2022-08-11T04:14:48;95784.44;;;10.29;87.83
70559;BME280;58108;48.094;11.838;2022-08-11T04:23:47;95775.66;;;10.55;86.71
70559;BME280;58108;48.094;11.838;2022-08-11T04:29:34;95776.06;;;10.37;88.36
70559;BME280;58108;48.094;11.838;2022-08-11T04:35:04;95777.41;;;10.18;89.38
70559;BME280;58108;48.094;11.838;2022-08-11T04:49:19;95766.47;;;10.24;88.79
70559;BME280;58108;48.094;11.838;2022-08-11T05:10:50;95790.91;;;10.49;88.98
70559;BME280;58108;48.094;11.838;2022-08-11T05:13:27;95787.47;;;11.07;86.09
70559;BME280;58108;48.094;11.838;2022-08-11T05:16:16;95795.38;;;11.19;85.78
70559;BME280;58108;48.094;11.838;2022-08-11T05:19:01;95803.56;;;11.03;86.25
70559;BME280;58108;48.094;11.838;2022-08-11T05:21:52;95793.78;;;10.93;87.05
70559;BME280;58108;48.094;11.838;2022-08-11T05:24:46;95796.59;;;11.26;85.35
70559;BME280;58108;48.094;11.838;2022-08-11T05:27:35;95802.75;;;11.02;85.86
70559;BME280;58108;48.094;11.838;2022-08-11T05:30:27;95798.72;;;11.10;86.70
70559;BME280;58108;48.094;11.838;2022-08-11T05:36:15;95797.44;;;11.27;85.75
70559;BME280;58108;48.094;11.838;2022-08-11T05:38:56;95797.44;;;11.49;84.78
70559;BME280;58108;48.094;11.838;2022-08-11T05:41:42;95797.94;;;11.66;85.87
70559;BME280;58108;48.094;11.838;2022-08-11T05:44:27;95808.16;;;11.92;85.11
70559;BME280;58108;48.094;11.838;2022-08-11T05:47:21;95793.00;;;12.19;83.30
70559;BME280;58108;48.094;11.838;2022-08-11T05:50:11;95806.41;;;12.48;82.96
70559;BME280;58108;48.094;11.838;2022-08-11T05:52:56;95802.72;;;12.72;81.54
70559;BME280;58108;48.094;11.838;2022-08-11T05:55:42;95806.94;;;12.63;83.13
70559;BME280;58108;48.094;11.838;2022-08-11T05:58:32;95803.63;;;12.82;82.47
70559;BME280;58108;48.094;11.838;2022-08-11T06:00:59;95799.31;;;12.93;82.77
70559;BME280;58108;48.094;11.838;2022-08-11T06:03:26;95800.25;;;12.92;82.69
70559;BME280;58108;48.094;11.838;2022-08-11T06:05:53;95800.69;;;13.39;81.33
70559;BME280;58108;48.094;11.838;2022-08-11T06:08:26;95806.03;;;13.49;81.81
70559;BME280;58108;48.094;11.838;2022-08-11T06:10:59;95805.25;;;13.59;80.26
70559;BME280;58108;48.094;11.838;2022-08-11T06:13:26;95798.63;;;13.64;81.25
70559;BME280;58108;48.094;11.838;2022-08-11T06:15:52;95795.00;;;13.65;80.81
70559;BME280;58108;48.094;11.838;2022-08-11T06:18:20;95799.28;;;13.57;81.98
70559;BME280;58108;48.094;11.838;2022-08-11T06:20:48;95799.53;;;13.53;82.15
70559;BME280;58108;48.094;11.838;2022-08-11T06:23:15;95795.50;;;13.49;82.63
70559;BME280;58108;48.094;11.838;2022-08-11T06:25:43;95806.09;;;13.59;82.10
70559;BME280;58108;48.094;11.838;2022-08-11T06:28:08;95804.56;;;13.98;81.61
70559;BME280;58108;48.094;11.838;2022-08-11T06:30:39;95797.25;;;14.21;80.25
70559;BME280;58108;48.094;11.838;2022-08-11T06:33:10;95801.91;;;14.48;77.84
70559;BME280;58108;48.094;11.838;2022-08-11T06:36:08;95802.19;;;14.85;76.57
70559;BME280;58108;48.094;11.838;2022-08-11T06:38:57;95802.63;;;14.90;75.80
70559;BME280;58108;48.094;11.838;2022-08-11T06:41:44;95808.13;;;15.36;73.56
70559;BME280;58108;48.094;11.838;2022-08-11T06:46:47;95804.72;;;15.64;71.80
70559;BME280;58108;48.094;11.838;2022-08-11T06:49:16;95803.28;;;15.69;70.70
70559;BME280;58108;48.094;11.838;2022-08-11T06:52:06;95805.31;;;15.85;69.85
70559;BME280;58108;48.094;11.838;2022-08-11T06:54:36;95809.19;;;16.01;68.92
70559;BME280;58108;48.094;11.838;2022-08-11T06:57:06;95799.28;;;16.03;68.42
70559;BME280;58108;48.094;11.838;2022-08-11T06:59:52;95808.63;;;16.25;68.88
70559;BME280;58108;48.094;11.838;2022-08-11T07:02:44;95806.84;;;16.44;68.24
70559;BME280;58108;48.094;11.838;2022-08-11T07:13:44;95808.63;;;17.34;64.54
70559;BME280;58108;48.094;11.838;2022-08-11T07:16:30;95804.22;;;17.43;60.95
70559;BME280;58108;48.094;11.838;2022-08-11T07:19:01;95804.22;;;17.43;60.29
70559;BME280;58108;48.094;11.838;2022-08-11T07:21:46;95797.63;;;17.47;61.19
70559;BME280;58108;48.094;11.838;2022-08-11T07:24:42;95801.06;;;17.66;59.82
70559;BME280;58108;48.094;11.838;2022-08-11T07:27:50;95789.28;;;17.95;60.34
70559;BME280;58108;48.094;11.838;2022-08-11T07:30:39;95787.13;;;17.99;58.61
70559;BME280;58108;48.094;11.838;2022-08-11T07:33:06;95788.72;;;18.10;58.01
70559;BME280;58108;48.094;11.838;2022-08-11T07:35:41;95785.41;;;18.16;57.86
70559;BME280;58108;48.094;11.838;2022-08-11T07:38:11;95783.97;;;18.30;57.55
70559;BME280;58108;48.094;11.838;2022-08-11T07:40:41;95787.16;;;18.50;57.46
70559;BME280;58108;48.094;11.838;2022-08-11T07:43:08;95787.84;;;18.69;57.54
70559;BME280;58108;48.094;11.838;2022-08-11T07:45:41;95793.47;;;18.82;57.57
70559;BME280;58108;48.094;11.838;2022-08-11T07:48:25;95790.50;;;18.94;56.06
70559;BME280;58108;48.094;11.838;2022-08-11T07:51:10;95785.56;;;19.07;56.10
70559;BME280;58108;48.094;11.838;2022-08-11T07:53:53;95779.22;;;19.33;55.03
70559;BME280;58108;48.094;11.838;2022-08-11T07:56:20;95784.06;;;19.46;55.13
70559;BME280;58108;48.094;11.838;2022-08-11T07:58:46;95788.16;;;19.49;55.30
70559;BME280;58108;48.094;11.838;2022-08-11T08:01:30;95787.38;;;19.40;54.51
70559;BME280;58108;48.094;11.838;2022-08-11T08:04:16;95781.66;;;19.60;55.07
70559;BME280;58108;48.094;11.838;2022-08-11T08:07:02;95793.13;;;19.68;54.66
70559;BME280;58108;48.094;11.838;2022-08-11T08:09:48;95789.59;;;19.85;55.00
70559;BME280;58108;48.094;11.838;2022-08-11T08:12:32;95790.72;;;19.90;53.83
70559;BME280;58108;48.094;11.838;2022-08-11T08:15:19;95789.06;;;19.89;52.75
70559;BME280;58108;48.094;11.838;2022-08-11T08:18:14;95782.75;;;19.90;53.68
70559;BME280;58108;48.094;11.838;2022-08-11T08:23:53;95782.66;;;20.15;53.07
70559;BME280;58108;48.094;11.838;2022-08-11T08:26:33;95784.81;;;20.20;53.93
70559;BME280;58108;48.094;11.838;2022-08-11T08:29:19;95784.06;;;20.34;53.76
70559;BME280;58108;48.094;11.838;2022-08-11T08:32:25;95787.69;;;20.42;51.23
70559;BME280;58108;48.094;11.838;2022-08-11T08:38:51;95779.66;;;20.50;51.65
70559;BME280;58108;48.094;11.838;2022-08-11T08:48:19;95791.88;;;20.91;51.64
70559;BME280;58108;48.094;11.838;2022-08-11T08:51:17;95796.03;;;21.17;52.59
70559;BME280;58108;48.094;11.838;2022-08-11T08:54:22;95794.28;;;21.24;50.50
70559;BME280;58108;48.094;11.838;2022-08-11T08:57:22;95796.50;;;21.36;48.89
70559;BME280;58108;48.094;11.838;2022-08-11T09:00:09;95791.72;;;21.31;50.11
70559;BME280;58108;48.094;11.838;2022-08-11T09:06:29;95787.81;;;21.42;50.00
70559;BME280;58108;48.094;11.838;2022-08-11T09:08:59;95791.03;;;21.67;49.67
70559;BME280;58108;48.094;11.838;2022-08-11T09:11:27;95794.22;;;21.86;48.30
70559;BME280;58108;48.094;11.838;2022-08-11T09:14:12;95790.72;;;21.85;47.62
70559;BME280;58108;48.094;11.838;2022-08-11T09:16:38;95789.84;;;22.15;47.43
70559;BME280;58108;48.094;11.838;2022-08-11T09:19:07;95788.47;;;22.19;47.10
70559;BME280;58108;48.094;11.838;2022-08-11T09:21:33;95782.75;;;22.22;45.24
70559;BME280;58108;48.094;11.838;2022-08-11T09:24:18;95787.09;;;22.23;47.09
70559;BME280;58108;48.094;11.838;2022-08-11T09:27:06;95776.44;;;22.23;46.67
70559;BME280;58108;48.094;11.838;2022-08-11T09:29:33;95779.44;;;22.50;47.17
70559;BME280;58108;48.094;11.838;2022-08-11T09:32:04;95783.84;;;22.58;44.77
70559;BME280;58108;48.094;11.838;2022-08-11T09:34:34;95787.25;;;22.52;45.22
70559;BME280;58108;48.094;11.838;2022-08-11T09:37:02;95789.22;;;22.65;45.15
70559;BME280;58108;48.094;11.838;2022-08-11T09:40:12;95798.13;;;22.72;45.24
70559;BME280;58108;48.094;11.838;2022-08-11T09:43:05;95791.19;;;22.78;44.80
70559;BME280;58108;48.094;11.838;2022-08-11T09:45:52;95792.31;;;22.84;44.32
70559;BME280;58108;48.094;11.838;2022-08-11T09:48:28;95790.56;;;23.19;44.82
70559;BME280;58108;48.094;11.838;2022-08-11T09:50:57;95788.34;;;23.45;43.93
70559;BME280;58108;48.094;11.838;2022-08-11T09:53:26;95784.88;;;23.51;45.08
70559;BME280;58108;48.094;11.838;2022-08-11T09:55:52;95783.81;;;23.24;44.02
70559;BME280;58108;48.094;11.838;2022-08-11T09:58:18;95791.16;;;23.37;42.71
70559;BME280;58108;48.094;11.838;2022-08-11T10:00:47;95786.56;;;23.59;44.76
70559;BME280;58108;48.094;11.838;2022-08-11T10:05:47;95777.28;;;23.90;41.33
70559;BME280;58108;48.094;11.838;2022-08-11T10:08:31;95779.78;;;23.98;42.34
70559;BME280;58108;48.094;11.838;2022-08-11T10:10:59;95780.81;;;23.97;42.50
70559;BME280;58108;48.094;11.838;2022-08-11T10:13:31;95776.88;;;24.28;42.17
70559;BME280;58108;48.094;11.838;2022-08-11T10:16:22;95779.59;;;24.00;43.19
70559;BME280;58108;48.094;11.838;2022-08-11T10:18:51;95773.16;;;24.23;42.41
70559;BME280;58108;48.094;11.838;2022-08-11T10:21:24;95762.69;;;24.28;39.82
70559;BME280;58108;48.094;11.838;2022-08-11T10:23:53;95767.63;;;24.31;41.77
70559;BME280;58108;48.094;11.838;2022-08-11T10:26:38;95762.50;;;24.36;41.29
70559;BME280;58108;48.094;11.838;2022-08-11T10:29:20;95769.75;;;24.49;42.56
70559;BME280;58108;48.094;11.838;2022-08-11T10:32:07;95770.19;;;24.60;42.21
70559;BME280;58108;48.094;11.838;2022-08-11T10:34:51;95763.69;;;24.82;41.22
70559;BME280;58108;48.094;11.838;2022-08-11T10:37:19;95761.31;;;24.52;40.52
70559;BME280;58108;48.094;11.838;2022-08-11T10:39:46;95756.41;;;24.76;39.49
70559;BME280;58108;48.094;11.838;2022-08-11T10:42:13;95762.00;;;24.81;40.30
70559;BME280;58108;48.094;11.838;2022-08-11T10:44:59;95748.22;;;24.84;41.25
70559;BME280;58108;48.094;11.838;2022-08-11T10:47:26;95745.72;;;24.83;40.29
70559;BME280;58108;48.094;11.838;2022-08-11T10:50:09;95749.25;;;24.83;42.44
70559;BME280;58108;48.094;11.838;2022-08-11T10:52:56;95754.19;;;24.87;39.78
70559;BME280;58108;48.094;11.838;2022-08-11T10:55:42;95746.78;;;25.02;40.62
70559;BME280;58108;48.094;11.838;2022-08-11T10:58:27;95740.63;;;25.15;37.33
70559;BME280;58108;48.094;11.838;2022-08-11T11:01:12;95744.88;;;24.76;38.97
70559;BME280;58108;48.094;11.838;2022-08-11T11:03:39;95748.22;;;25.05;39.75
70559;BME280;58108;48.094;11.838;2022-08-11T11:06:16;95744.31;;;25.07;37.58
70559;BME280;58108;48.094;11.838;2022-08-11T11:08:45;95742.25;;;25.09;39.25
70559;BME280;58108;48.094;11.838;2022-08-11T11:11:18;95742.84;;;25.45;39.46
70559;BME280;58108;48.094;11.838;2022-08-11T11:13:48;95738.94;;;25.41;37.08
70559;BME280;58108;48.094;11.838;2022-08-11T11:16:37;95733.38;;;25.43;38.17
70559;BME280;58108;48.094;11.838;2022-08-11T11:19:29;95731.28;;;25.65;39.63
70559;BME280;58108;48.094;11.838;2022-08-11T11:21:58;95734.00;;;25.24;38.94
70559;BME280;58108;48.094;11.838;2022-08-11T11:25:19;95733.19;;;25.31;38.21
70559;BME280;58108;48.094;11.838;2022-08-11T11:27:54;95726.56;;;25.60;38.09
70559;BME280;58108;48.094;11.838;2022-08-11T11:30:26;95737.78;;;26.03;38.79
70559;BME280;58108;48.094;11.838;2022-08-11T11:33:07;95724.72;;;26.20;40.21
70559;BME280;58108;48.094;11.838;2022-08-11T11:35:54;95719.28;;;26.33;41.51
70559;BME280;58108;48.094;11.838;2022-08-11T11:38:24;95724.38;;;26.03;36.54
70559;BME280;58108;48.094;11.838;2022-08-11T11:40:50;95723.91;;;26.13;38.06
70559;BME280;58108;48.094;11.838;2022-08-11T11:43:35;95718.69;;;26.31;35.95
70559;BME280;58108;48.094;11.838;2022-08-11T11:46:02;95716.84;;;26.32;36.33
70559;BME280;58108;48.094;11.838;2022-08-11T11:48:30;95714.34;;;26.30;38.68
70559;BME280;58108;48.094;11.838;2022-08-11T11:50:56;95720.75;;;26.29;37.42
70559;BME280;58108;48.094;11.838;2022-08-11T11:53:23;95714.91;;;27.03;35.26
70559;BME280;58108;48.094;11.838;2022-08-11T11:55:49;95718.72;;;26.96;35.24
70559;BME280;58108;48.094;11.838;2022-08-11T11:58:14;95710.28;;;27.18;33.75
70559;BME280;58108;48.094;11.838;2022-08-11T12:00:59;95712.69;;;27.26;34.58
70559;BME280;58108;48.094;11.838;2022-08-11T12:03:43;95709.13;;;27.51;35.69
70559;BME280;58108;48.094;11.838;2022-08-11T12:06:10;95712.75;;;28.01;35.54
70559;BME280;58108;48.094;11.838;2022-08-11T12:08:39;95720.00;;;29.46;36.00
70559;BME280;58108;48.094;11.838;2022-08-11T12:11:09;95714.53;;;29.11;34.28
70559;BME280;58108;48.094;11.838;2022-08-11T12:13:54;95703.72;;;30.93;28.71
70559;BME280;58108;48.094;11.838;2022-08-11T12:16:22;95708.84;;;32.03;32.40
70559;BME280;58108;48.094;11.838;2022-08-11T12:19:12;95699.06;;;31.62;29.41
70559;BME280;58108;48.094;11.838;2022-08-11T12:21:39;95686.06;;;31.82;27.50
70559;BME280;58108;48.094;11.838;2022-08-11T12:24:29;95701.78;;;32.52;28.33
70559;BME280;58108;48.094;11.838;2022-08-11T12:27:13;95699.19;;;33.22;26.59
70559;BME280;58108;48.094;11.838;2022-08-11T12:29:46;95689.28;;;32.78;27.26
70559;BME280;58108;48.094;11.838;2022-08-11T12:32:13;95689.47;;;32.94;25.56
70559;BME280;58108;48.094;11.838;2022-08-11T12:34:38;95691.25;;;34.02;25.08
70559;BME280;58108;48.094;11.838;2022-08-11T12:37:04;95687.47;;;34.13;25.60
70559;BME280;58108;48.094;11.838;2022-08-11T12:39:37;95680.34;;;35.07;26.35
70559;BME280;58108;48.094;11.838;2022-08-11T12:42:22;95673.47;;;34.73;23.06
70559;BME280;58108;48.094;11.838;2022-08-11T12:45:10;95671.84;;;34.93;24.44
70559;BME280;58108;48.094;11.838;2022-08-11T12:47:52;95665.78;;;34.29;24.73
70559;BME280;58108;48.094;11.838;2022-08-11T12:50:41;95664.44;;;34.42;22.93
70559;BME280;58108;48.094;11.838;2022-08-11T12:53:27;95661.25;;;34.97;22.57
70559;BME280;58108;48.094;11.838;2022-08-11T12:55:56;95671.31;;;35.27;21.58
70559;BME280;58108;48.094;11.838;2022-08-11T12:58:43;95669.59;;;34.43;25.96
70559;BME280;58108;48.094;11.838;2022-08-11T13:01:09;95659.91;;;34.89;22.06
70559;BME280;58108;48.094;11.838;2022-08-11T13:03:54;95657.13;;;35.46;22.17
70559;BME280;58108;48.094;11.838;2022-08-11T13:06:40;95655.81;;;34.71;23.50
70559;BME280;58108;48.094;11.838;2022-08-11T13:09:07;95651.91;;;34.20;23.02
70559;BME280;58108;48.094;11.838;2022-08-11T13:11:35;95643.88;;;33.87;23.05
70559;BME280;58108;48.094;11.838;2022-08-11T13:14:20;95647.00;;;34.22;22.58
70559;BME280;58108;48.094;11.838;2022-08-11T13:16:47;95645.31;;;32.43;23.76
70559;BME280;58108;48.094;11.838;2022-08-11T13:19:31;95655.22;;;34.53;24.09
70559;BME280;58108;48.094;11.838;2022-08-11T13:22:03;95647.91;;;35.16;24.07
70559;BME280;58108;48.094;11.838;2022-08-11T13:24:31;95646.00;;;34.65;22.40
70559;BME280;58108;48.094;11.838;2022-08-11T13:26:58;95652.97;;;33.50;22.02
70559;BME280;58108;48.094;11.838;2022-08-11T13:29:26;95652.06;;;33.92;24.38
70559;BME280;58108;48.094;11.838;2022-08-11T13:31:54;95642.94;;;33.50;23.06
70559;BME280;58108;48.094;11.838;2022-08-11T13:34:22;95649.00;;;33.73;23.40
70559;BME280;58108;48.094;11.838;2022-08-11T13:36:50;95646.00;;;34.80;24.41
70559;BME280;58108;48.094;11.838;2022-08-11T13:39:16;95646.47;;;35.44;20.16
70559;BME280;58108;48.094;11.838;2022-08-11T13:41:42;95635.91;;;35.33;21.14
70559;BME280;58108;48.094;11.838;2022-08-11T13:44:12;95639.97;;;35.40;22.61
70559;BME280;58108;48.094;11.838;2022-08-11T13:46:40;95635.72;;;33.77;22.27
70559;BME280;58108;48.094;11.838;2022-08-11T13:49:07;95638.59;;;34.34;21.63
70559;BME280;58108;48.094;11.838;2022-08-11T13:51:34;95634.34;;;32.93;23.41
70559;BME280;58108;48.094;11.838;2022-08-11T13:54:07;95637.59;;;33.76;22.38
70559;BME280;58108;48.094;11.838;2022-08-11T13:56:34;95635.09;;;35.22;20.56
70559;BME280;58108;48.094;11.838;2022-08-11T13:59:01;95626.97;;;34.80;23.67
70559;BME280;58108;48.094;11.838;2022-08-11T14:01:30;95634.00;;;35.38;21.45
70559;BME280;58108;48.094;11.838;2022-08-11T14:04:07;95621.94;;;35.65;19.97
70559;BME280;58108;48.094;11.838;2022-08-11T14:06:33;95629.44;;;35.94;18.37
70559;BME280;58108;48.094;11.838;2022-08-11T14:09:02;95634.72;;;36.31;20.50
70559;BME280;58108;48.094;11.838;2022-08-11T14:11:29;95625.66;;;36.46;19.62
70559;BME280;58108;48.094;11.838;2022-08-11T14:14:21;95627.91;;;36.28;20.50
70559;BME280;58108;48.094;11.838;2022-08-11T14:16:47;95623.84;;;36.71;20.61
70559;BME280;58108;48.094;11.838;2022-08-11T14:19:16;95621.22;;;35.18;19.93
70559;BME280;58108;48.094;11.838;2022-08-11T14:21:46;95620.38;;;34.19;22.51
70559;BME280;58108;48.094;11.838;2022-08-11T14:24:30;95614.41;;;35.05;20.68
70559;BME280;58108;48.094;11.838;2022-08-11T14:26:56;95615.13;;;33.38;21.25
70559;BME280;58108;48.094;11.838;2022-08-11T14:29:24;95624.06;;;33.33;22.94
70559;BME280;58108;48.094;11.838;2022-08-11T14:31:54;95612.53;;;34.95;20.51
70559;BME280;58108;48.094;11.838;2022-08-11T14:34:22;95614.00;;;35.79;20.48
70559;BME280;58108;48.094;11.838;2022-08-11T14:36:55;95611.47;;;35.93;18.85
70559;BME280;58108;48.094;11.838;2022-08-11T14:39:26;95609.53;;;33.60;21.68
70559;BME280;58108;48.094;11.838;2022-08-11T14:41:55;95611.94;;;32.70;22.81
70559;BME280;58108;48.094;11.838;2022-08-11T14:44:49;95621.31;;;33.28;22.60
70559;BME280;58108;48.094;11.838;2022-08-11T14:47:50;95620.13;;;35.24;21.22
70559;BME280;58108;48.094;11.838;2022-08-11T14:50:21;95619.72;;;35.78;20.20
70559;BME280;58108;48.094;11.838;2022-08-11T14:52:49;95609.44;;;35.49;19.45
70559;BME280;58108;48.094;11.838;2022-08-11T14:55:15;95610.44;;;35.79;19.87
70559;BME280;58108;48.094;11.838;2022-08-11T14:58:00;95610.06;;;36.01;21.60
70559;BME280;58108;48.094;11.838;2022-08-11T15:00:26;95608.28;;;37.30;18.73
70559;BME280;58108;48.094;11.838;2022-08-11T15:02:53;95600.75;;;36.52;17.27
70559;BME280;58108;48.094;11.838;2022-08-11T15:05:47;95596.75;;;35.08;18.95
70559;BME280;58108;48.094;11.838;2022-08-11T15:08:14;95588.56;;;34.19;20.17
70559;BME280;58108;48.094;11.838;2022-08-11T15:10:41;95599.25;;;32.16;22.55
70559;BME280;58108;48.094;11.838;2022-08-11T15:13:06;95599.22;;;31.44;23.28
70559;BME280;58108;48.094;11.838;2022-08-11T15:15:33;95599.03;;;31.73;24.07
70559;BME280;58108;48.094;11.838;2022-08-11T15:18:18;95603.38;;;31.96;24.09
70559;BME280;58108;48.094;11.838;2022-08-11T15:20:45;95597.00;;;30.84;25.16
70559;BME280;58108;48.094;11.838;2022-08-11T15:23:29;95596.38;;;30.13;25.78
70559;BME280;58108;48.094;11.838;2022-08-11T15:29:14;95595.59;;;29.60;27.18
70559;BME280;58108;48.094;11.838;2022-08-11T15:32:00;95593.47;;;29.09;27.73
70559;BME280;58108;48.094;11.838;2022-08-11T15:34:58;95594.97;;;29.05;26.16
70559;BME280;58108;48.094;11.838;2022-08-11T15:37:43;95603.38;;;28.61;28.19
70559;BME280;58108;48.094;11.838;2022-08-11T15:40:15;95591.97;;;27.74;29.44
70559;BME280;58108;48.094;11.838;2022-08-11T15:43:09;95587.94;;;27.64;29.13
70559;BME280;58108;48.094;11.838;2022-08-11T15:45:56;95582.63;;;27.39;30.77
70559;BME280;58108;48.094;11.838;2022-08-11T15:50:55;95580.91;;;28.67;29.11
70559;BME280;58108;48.094;11.838;2022-08-11T15:53:31;95579.84;;;29.69;28.34
70559;BME280;58108;48.094;11.838;2022-08-11T15:55:58;95578.66;;;30.86;25.01
70559;BME280;58108;48.094;11.838;2022-08-11T15:58:29;95575.19;;;32.52;23.11
70559;BME280;58108;48.094;11.838;2022-08-11T16:01:18;95578.19;;;32.89;22.72
70559;BME280;58108;48.094;11.838;2022-08-11T16:04:07;95572.81;;;34.73;22.83
70559;BME280;58108;48.094;11.838;2022-08-11T16:06:44;95573.94;;;34.67;21.96
70559;BME280;58108;48.094;11.838;2022-08-11T16:09:13;95567.69;;;36.24;20.20
70559;BME280;58108;48.094;11.838;2022-08-11T16:11:40;95570.28;;;35.29;20.05
70559;BME280;58108;48.094;11.838;2022-08-11T16:14:07;95577.25;;;33.64;21.48
70559;BME280;58108;48.094;11.838;2022-08-11T16:16:53;95576.75;;;33.77;23.08
70559;BME280;58108;48.094;11.838;2022-08-11T16:19:24;95562.69;;;35.26;20.90
70559;BME280;58108;48.094;11.838;2022-08-11T16:21:52;95558.13;;;34.17;21.99
70559;BME280;58108;48.094;11.838;2022-08-11T16:24:21;95560.56;;;34.45;21.95
70559;BME280;58108;48.094;11.838;2022-08-11T16:26:49;95567.47;;;33.58;22.68
70559;BME280;58108;48.094;11.838;2022-08-11T16:29:17;95563.28;;;34.29;21.11
70559;BME280;58108;48.094;11.838;2022-08-11T16:31:44;95567.38;;;34.79;22.36
70559;BME280;58108;48.094;11.838;2022-08-11T16:34:30;95570.09;;;34.79;21.81
70559;BME280;58108;48.094;11.838;2022-08-11T16:37:17;95565.69;;;34.00;21.10
70559;BME280;58108;48.094;11.838;2022-08-11T16:40:03;95565.94;;;33.88;21.35
70559;BME280;58108;48.094;11.838;2022-08-11T16:42:29;95566.91;;;33.50;23.32
70559;BME280;58108;48.094;11.838;2022-08-11T16:45:14;95560.28;;;34.20;22.82
70559;BME280;58108;48.094;11.838;2022-08-11T16:47:59;95560.31;;;34.52;21.79
70559;BME280;58108;48.094;11.838;2022-08-11T16:50:26;95555.16;;;34.60;21.27
70559;BME280;58108;48.094;11.838;2022-08-11T16:52:54;95551.31;;;34.09;22.82
70559;BME280;58108;48.094;11.838;2022-08-11T16:55:19;95551.59;;;34.08;22.33